createdAt,value
2023-03-23T15:59:55.896Z,1.10
2023-03-23T16:02:25.129Z,0.95
2023-03-23T16:04:52.170Z,1.20
2023-03-23T16:07:23.068Z,0.93
2023-03-23T16:09:49.723Z,1.27
2023-03-23T16:12:16.429Z,1.15
2023-03-23T16:14:43.108Z,1.20
2023-03-23T16:17:17.619Z,1.15
2023-03-23T16:19:44.242Z,1.00
2023-03-23T16:22:10.942Z,1.25
2023-03-23T16:24:38.407Z,1.20
2023-03-23T16:27:05.968Z,1.10
2023-03-23T16:29:50.434Z,1.02
2023-03-23T16:32:19.410Z,1.00
2023-03-23T16:34:46.084Z,1.20
2023-03-23T16:37:13.305Z,1.10
2023-03-23T16:39:39.976Z,1.15
2023-03-23T16:42:06.677Z,1.00
2023-03-23T16:44:33.383Z,1.17
2023-03-23T16:47:00.334Z,1.10
2023-03-23T16:49:27.039Z,1.30
2023-03-23T16:51:53.838Z,1.10
2023-03-23T16:54:20.738Z,1.05
2023-03-23T16:56:48.958Z,1.23
2023-03-23T16:59:15.742Z,0.85
2023-03-23T17:01:43.149Z,1.05
2023-03-23T17:04:09.950Z,1.13
2023-03-23T17:06:36.672Z,1.17
2023-03-23T17:09:03.610Z,1.10
2023-03-23T17:11:30.555Z,1.08
2023-03-23T17:13:57.234Z,1.02
2023-03-23T17:16:23.947Z,0.98
2023-03-23T17:18:50.623Z,1.10
2023-03-23T17:21:17.295Z,1.00
2023-03-23T17:23:43.945Z,1.00
2023-03-23T17:26:10.753Z,1.00
2023-03-23T17:28:37.435Z,1.00
2023-03-23T17:31:06.164Z,0.95
2023-03-23T17:33:32.976Z,1.05
2023-03-23T17:35:59.651Z,1.00
2023-03-23T17:38:27.021Z,1.10
2023-03-23T17:41:01.935Z,1.05
2023-03-23T17:43:28.626Z,1.10
2023-03-23T17:45:55.606Z,1.10
2023-03-23T17:48:22.955Z,1.27
2023-03-23T17:50:49.938Z,1.10
2023-03-23T17:53:18.455Z,1.35
2023-03-23T17:55:46.024Z,1.52
2023-03-23T17:58:12.875Z,1.52
2023-03-23T18:00:39.555Z,2.10
2023-03-23T18:03:06.439Z,2.33
2023-03-23T18:05:34.607Z,2.25
2023-03-23T18:08:01.372Z,1.95
2023-03-23T18:10:28.096Z,1.58
2023-03-23T18:12:54.818Z,1.80
2023-03-23T18:15:21.828Z,1.60
2023-03-23T18:17:56.191Z,1.30
2023-03-23T18:20:22.896Z,1.95
2023-03-23T18:22:49.546Z,1.77
2023-03-23T18:25:16.437Z,1.60
2023-03-23T18:27:43.158Z,1.85
2023-03-23T18:30:10.582Z,1.70
2023-03-23T18:32:40.716Z,1.83
2023-03-23T18:35:10.688Z,1.55
2023-03-23T18:37:41.317Z,2.00
2023-03-23T18:40:12.042Z,1.60
2023-03-23T18:42:44.820Z,1.20
2023-03-23T18:45:12.069Z,1.48
2023-03-23T18:47:38.926Z,1.50
2023-03-23T18:50:09.951Z,1.30
2023-03-23T18:52:37.452Z,1.50
2023-03-23T18:55:04.792Z,1.50
2023-03-23T18:57:31.449Z,1.50
2023-03-23T18:59:58.120Z,1.50
2023-03-23T19:02:24.827Z,1.42
2023-03-23T19:04:51.607Z,1.55
2023-03-23T19:07:19.556Z,1.42
2023-03-23T19:09:47.324Z,1.42
2023-03-23T19:12:15.662Z,1.33
2023-03-23T19:14:42.395Z,1.40
2023-03-23T19:17:09.231Z,1.58
2023-03-23T19:19:36.654Z,1.23
2023-03-23T19:22:05.675Z,1.55
2023-03-23T19:24:32.386Z,1.40
2023-03-23T19:26:59.170Z,1.52
2023-03-23T19:29:27.478Z,1.52
2023-03-23T19:31:57.848Z,1.30
2023-03-23T19:34:26.676Z,1.70
2023-03-23T19:36:56.207Z,1.70
2023-03-23T19:39:30.857Z,1.63
2023-03-23T19:41:57.686Z,1.70
2023-03-23T19:44:25.210Z,1.73
2023-03-23T19:46:53.853Z,1.70
2023-03-23T19:49:20.915Z,1.42
2023-03-23T19:51:47.646Z,1.75
2023-03-23T19:54:14.421Z,1.77
2023-03-23T19:56:41.507Z,1.50
2023-03-23T19:59:11.418Z,1.52
2023-03-23T20:01:38.154Z,1.90
2023-03-23T20:04:05.363Z,2.05
2023-03-23T20:06:32.659Z,1.40
2023-03-23T20:09:00.614Z,1.85
2023-03-23T20:11:28.891Z,1.60
2023-03-23T20:13:56.250Z,1.80
2023-03-23T20:16:23.751Z,1.88
2023-03-23T20:18:50.745Z,1.65
2023-03-23T20:21:20.457Z,1.58
2023-03-23T20:23:47.865Z,1.55
2023-03-23T20:26:30.710Z,1.52
2023-03-23T20:28:57.420Z,1.60
2023-03-23T20:31:30.232Z,1.52
2023-03-23T20:34:03.006Z,1.45
2023-03-23T20:36:36.292Z,1.63
2023-03-23T20:39:10.497Z,1.67
2023-03-23T20:41:41.370Z,1.70
2023-03-23T20:44:13.887Z,1.73
2023-03-23T20:46:41.708Z,1.50
2023-03-23T20:49:09.923Z,1.63
2023-03-23T20:51:37.156Z,1.30
2023-03-23T20:54:04.832Z,1.60
2023-03-23T20:56:32.621Z,1.70
2023-03-23T20:58:59.502Z,1.52
2023-03-23T21:01:26.361Z,1.30
2023-03-23T21:03:54.141Z,1.90
2023-03-23T21:06:21.559Z,1.83
2023-03-23T21:08:48.807Z,1.60
2023-03-23T21:11:20.903Z,1.98
2023-03-23T21:13:48.689Z,1.58
2023-03-23T21:16:15.918Z,1.73
2023-03-23T21:18:42.714Z,1.80
2023-03-23T21:21:11.253Z,1.50
2023-03-23T21:23:46.885Z,1.52
2023-03-23T21:26:18.644Z,1.55
2023-03-23T21:28:46.670Z,1.77
2023-03-23T21:31:15.046Z,1.50
2023-03-23T21:33:41.956Z,1.60
2023-03-23T21:36:09.486Z,1.48
2023-03-23T21:38:38.176Z,1.80
2023-03-23T21:41:29.975Z,1.58
2023-03-23T21:44:10.445Z,1.50
2023-03-23T21:46:41.937Z,1.40
2023-03-23T21:49:13.897Z,1.65
2023-03-23T21:51:41.681Z,1.50
2023-03-23T21:54:09.390Z,1.50
2023-03-23T21:56:36.715Z,1.60
2023-03-23T21:59:04.705Z,1.65
2023-03-23T22:01:31.536Z,1.88
2023-03-23T22:03:58.364Z,1.80
2023-03-23T22:06:28.289Z,1.70
2023-03-23T22:08:55.931Z,1.95
2023-03-23T22:11:25.550Z,1.65
2023-03-23T22:13:54.158Z,1.70
2023-03-23T22:16:21.849Z,1.70
2023-03-23T22:18:50.057Z,1.90
2023-03-23T22:21:18.058Z,2.00
2023-03-23T22:23:45.462Z,2.03
2023-03-23T22:26:14.046Z,1.70
2023-03-23T22:28:40.842Z,1.83
2023-03-23T22:31:12.780Z,1.90
2023-03-23T22:33:39.988Z,2.05
2023-03-23T22:36:07.404Z,2.15
2023-03-23T22:38:36.257Z,2.15
2023-03-23T22:41:06.741Z,2.10
2023-03-23T22:43:37.201Z,2.05
2023-03-23T22:46:05.071Z,2.20
2023-03-23T22:48:32.052Z,2.10
2023-03-23T22:50:58.930Z,2.00
2023-03-23T22:53:26.179Z,2.30
2023-03-23T22:55:55.586Z,2.05
2023-03-23T22:58:23.309Z,2.15
2023-03-23T23:00:55.314Z,1.98
2023-03-23T23:03:22.015Z,1.90
2023-03-23T23:05:50.728Z,1.98
2023-03-23T23:08:18.179Z,2.00
2023-03-23T23:10:47.750Z,2.10
2023-03-23T23:13:15.075Z,2.20
2023-03-23T23:15:45.182Z,2.08
2023-03-23T23:18:12.412Z,1.90
2023-03-23T23:20:41.023Z,2.33
2023-03-23T23:23:08.689Z,1.95
2023-03-23T23:25:36.442Z,1.70
2023-03-23T23:28:04.812Z,2.08
2023-03-23T23:30:32.012Z,1.70
2023-03-23T23:32:58.863Z,2.00
2023-03-23T23:35:25.765Z,1.90
2023-03-23T23:37:52.943Z,2.03
2023-03-23T23:40:20.127Z,1.67
2023-03-23T23:42:49.894Z,1.80
2023-03-23T23:45:18.052Z,1.70
2023-03-23T23:47:45.690Z,1.67
2023-03-23T23:50:14.124Z,1.70
2023-03-23T23:52:42.449Z,1.80
2023-03-23T23:55:10.848Z,2.00
2023-03-23T23:57:38.299Z,1.95
